sensor_id;sensor_type;location;lat;lon;timestamp;pressure;altitude;pressure_sealevel;temperature;humidity
53514;BME280;39768;54.148;12.174;2023-07-13T00:03:19;101082.06;;;15.24;nan
53514;BME280;39768;54.148;12.174;2023-07-13T00:07:21;101087.38;;;15.06;nan
53514;BME280;39768;54.148;12.174;2023-07-13T00:11:22;101096.78;;;15.17;nan
53514;BME280;39768;54.148;12.174;2023-07-13T00:15:25;101090.16;;;15.24;nan
53514;BME280;39768;54.148;12.174;2023-07-13T00:19:27;101105.22;;;15.28;nan
53514;BME280;39768;54.148;12.174;2023-07-13T00:23:29;101098.81;;;15.49;nan
53514;BME280;39768;54.148;12.174;2023-07-13T00:27:31;101098.56;;;15.35;nan
53514;BME280;39768;54.148;12.174;2023-07-13T00:31:33;101093.78;;;15.23;nan
53514;BME280;39768;54.148;12.174;2023-07-13T00:35:34;101103.97;;;15.35;nan
53514;BME280;39768;54.148;12.174;2023-07-13T00:39:36;101102.91;;;15.39;nan
53514;BME280;39768;54.148;12.174;2023-07-13T00:43:38;101097.44;;;15.22;nan
53514;BME280;39768;54.148;12.174;2023-07-13T00:47:40;101104.22;;;15.12;nan
53514;BME280;39768;54.148;12.174;2023-07-13T00:51:48;101096.47;;;15.23;nan
53514;BME280;39768;54.148;12.174;2023-07-13T00:55:51;101097.25;;;15.45;nan
53514;BME280;39768;54.148;12.174;2023-07-13T00:59:57;101108.84;;;15.47;nan
53514;BME280;39768;54.148;12.174;2023-07-13T01:03:59;101094.31;;;15.31;nan
53514;BME280;39768;54.148;12.174;2023-07-13T01:08:02;101093.78;;;15.23;nan
53514;BME280;39768;54.148;12.174;2023-07-13T01:12:05;101093.38;;;15.13;nan
53514;BME280;39768;54.148;12.174;2023-07-13T01:16:17;101100.56;;;15.13;nan
53514;BME280;39768;54.148;12.174;2023-07-13T01:20:20;101086.56;;;15.23;nan
53514;BME280;39768;54.148;12.174;2023-07-13T01:24:22;101085.56;;;15.26;nan
53514;BME280;39768;54.148;12.174;2023-07-13T01:28:26;101090.50;;;15.35;nan
53514;BME280;39768;54.148;12.174;2023-07-13T01:32:31;101092.28;;;15.36;nan
53514;BME280;39768;54.148;12.174;2023-07-13T01:36:34;101085.94;;;15.37;nan
53514;BME280;39768;54.148;12.174;2023-07-13T01:40:36;101097.81;;;15.33;nan
53514;BME280;39768;54.148;12.174;2023-07-13T01:44:38;101093.94;;;15.38;nan
53514;BME280;39768;54.148;12.174;2023-07-13T01:48:42;101094.44;;;15.28;nan
53514;BME280;39768;54.148;12.174;2023-07-13T01:52:43;101093.66;;;15.26;nan
53514;BME280;39768;54.148;12.174;2023-07-13T01:56:45;101096.34;;;15.26;nan
53514;BME280;39768;54.148;12.174;2023-07-13T02:00:48;101099.84;;;15.28;nan
53514;BME280;39768;54.148;12.174;2023-07-13T02:04:50;101103.47;;;15.27;nan
53514;BME280;39768;54.148;12.174;2023-07-13T02:08:52;101098.91;;;15.29;nan
53514;BME280;39768;54.148;12.174;2023-07-13T02:12:53;101107.41;;;15.20;nan
53514;BME280;39768;54.148;12.174;2023-07-13T02:16:55;101107.25;;;14.85;nan
53514;BME280;39768;54.148;12.174;2023-07-13T02:20:56;101100.56;;;15.13;nan
53514;BME280;39768;54.148;12.174;2023-07-13T02:24:58;101102.50;;;14.90;nan
53514;BME280;39768;54.148;12.174;2023-07-13T02:29:00;101111.75;;;14.66;nan
53514;BME280;39768;54.148;12.174;2023-07-13T02:33:01;101105.91;;;14.75;nan
53514;BME280;39768;54.148;12.174;2023-07-13T02:37:04;101109.88;;;14.87;nan
53514;BME280;39768;54.148;12.174;2023-07-13T02:41:07;101116.50;;;14.80;nan
53514;BME280;39768;54.148;12.174;2023-07-13T02:45:10;101115.13;;;14.90;nan
53514;BME280;39768;54.148;12.174;2023-07-13T02:49:11;101105.44;;;14.86;nan
53514;BME280;39768;54.148;12.174;2023-07-13T02:53:13;101119.94;;;14.83;nan
53514;BME280;39768;54.148;12.174;2023-07-13T02:57:15;101118.13;;;14.63;nan
53514;BME280;39768;54.148;12.174;2023-07-13T03:01:17;101121.69;;;14.64;nan
53514;BME280;39768;54.148;12.174;2023-07-13T03:05:20;101120.81;;;14.63;nan
53514;BME280;39768;54.148;12.174;2023-07-13T03:09:22;101124.75;;;14.56;nan
53514;BME280;39768;54.148;12.174;2023-07-13T03:13:26;101130.16;;;14.34;nan
53514;BME280;39768;54.148;12.174;2023-07-13T03:17:28;101120.63;;;14.27;nan
53514;BME280;39768;54.148;12.174;2023-07-13T03:21:30;101130.34;;;14.52;nan
53514;BME280;39768;54.148;12.174;2023-07-13T03:25:31;101128.81;;;14.45;nan
53514;BME280;39768;54.148;12.174;2023-07-13T03:29:35;101128.69;;;14.27;nan
53514;BME280;39768;54.148;12.174;2023-07-13T03:33:37;101121.03;;;14.38;nan
53514;BME280;39768;54.148;12.174;2023-07-13T03:37:39;101139.53;;;14.46;nan
53514;BME280;39768;54.148;12.174;2023-07-13T03:41:48;101135.72;;;14.72;nan
53514;BME280;39768;54.148;12.174;2023-07-13T03:45:50;101133.72;;;14.57;nan
53514;BME280;39768;54.148;12.174;2023-07-13T03:49:52;101136.84;;;14.66;nan
53514;BME280;39768;54.148;12.174;2023-07-13T03:53:54;101143.81;;;14.91;nan
53514;BME280;39768;54.148;12.174;2023-07-13T03:58:32;101143.03;;;15.07;nan
53514;BME280;39768;54.148;12.174;2023-07-13T04:02:41;101151.19;;;15.06;nan
53514;BME280;39768;54.148;12.174;2023-07-13T04:06:43;101141.56;;;15.19;nan
53514;BME280;39768;54.148;12.174;2023-07-13T04:10:46;101136.66;;;16.54;nan
53514;BME280;39768;54.148;12.174;2023-07-13T04:14:47;101145.31;;;18.05;nan
53514;BME280;39768;54.148;12.174;2023-07-13T04:18:49;101147.38;;;19.47;nan
53514;BME280;39768;54.148;12.174;2023-07-13T04:22:52;101146.09;;;20.33;nan
53514;BME280;39768;54.148;12.174;2023-07-13T04:26:54;101153.72;;;20.53;nan
53514;BME280;39768;54.148;12.174;2023-07-13T04:30:57;101155.09;;;21.37;nan
53514;BME280;39768;54.148;12.174;2023-07-13T04:34:59;101160.06;;;22.16;nan
53514;BME280;39768;54.148;12.174;2023-07-13T04:39:00;101150.88;;;22.17;nan
53514;BME280;39768;54.148;12.174;2023-07-13T04:43:02;101149.63;;;22.10;nan
53514;BME280;39768;54.148;12.174;2023-07-13T04:47:04;101142.75;;;21.80;nan
53514;BME280;39768;54.148;12.174;2023-07-13T04:51:06;101157.84;;;22.56;nan
53514;BME280;39768;54.148;12.174;2023-07-13T04:55:08;101160.91;;;23.08;nan
53514;BME280;39768;54.148;12.174;2023-07-13T04:59:10;101165.34;;;22.41;nan
53514;BME280;39768;54.148;12.174;2023-07-13T05:03:12;101158.84;;;23.23;nan
53514;BME280;39768;54.148;12.174;2023-07-13T05:07:14;101161.72;;;23.33;nan
53514;BME280;39768;54.148;12.174;2023-07-13T05:11:18;101147.63;;;22.82;nan
53514;BME280;39768;54.148;12.174;2023-07-13T05:15:21;101150.72;;;23.77;nan
53514;BME280;39768;54.148;12.174;2023-07-13T05:19:23;101149.03;;;23.43;nan
53514;BME280;39768;54.148;12.174;2023-07-13T05:23:25;101153.28;;;24.01;nan
53514;BME280;39768;54.148;12.174;2023-07-13T05:27:27;101157.50;;;24.26;nan
53514;BME280;39768;54.148;12.174;2023-07-13T05:31:28;101158.97;;;23.33;nan
53514;BME280;39768;54.148;12.174;2023-07-13T05:35:29;101160.47;;;23.26;nan
53514;BME280;39768;54.148;12.174;2023-07-13T05:39:31;101152.13;;;21.76;nan
53514;BME280;39768;54.148;12.174;2023-07-13T05:43:34;101151.75;;;19.76;nan
53514;BME280;39768;54.148;12.174;2023-07-13T05:47:36;101156.84;;;18.69;nan
53514;BME280;39768;54.148;12.174;2023-07-13T05:51:37;101163.09;;;18.25;nan
53514;BME280;39768;54.148;12.174;2023-07-13T05:55:43;101155.78;;;18.11;nan
53514;BME280;39768;54.148;12.174;2023-07-13T05:59:45;101152.44;;;18.52;nan
53514;BME280;39768;54.148;12.174;2023-07-13T06:03:47;101155.88;;;18.40;nan
53514;BME280;39768;54.148;12.174;2023-07-13T06:07:48;101161.91;;;19.03;nan
53514;BME280;39768;54.148;12.174;2023-07-13T06:11:50;101162.28;;;18.97;nan
53514;BME280;39768;54.148;12.174;2023-07-13T06:15:52;101162.88;;;18.88;nan
53514;BME280;39768;54.148;12.174;2023-07-13T06:19:53;101159.56;;;18.83;nan
53514;BME280;39768;54.148;12.174;2023-07-13T06:23:55;101162.53;;;18.64;nan
53514;BME280;39768;54.148;12.174;2023-07-13T06:27:56;101164.91;;;18.99;nan
53514;BME280;39768;54.148;12.174;2023-07-13T06:31:58;101167.81;;;19.10;nan
53514;BME280;39768;54.148;12.174;2023-07-13T06:36:00;101170.63;;;19.08;nan
53514;BME280;39768;54.148;12.174;2023-07-13T06:40:02;101170.84;;;19.34;nan
53514;BME280;39768;54.148;12.174;2023-07-13T06:44:05;101179.53;;;19.10;nan
53514;BME280;39768;54.148;12.174;2023-07-13T06:48:08;101174.13;;;19.80;nan
53514;BME280;39768;54.148;12.174;2023-07-13T07:24:22;101172.25;;;17.77;nan
53514;BME280;39768;54.148;12.174;2023-07-13T07:28:23;101172.00;;;18.27;nan
53514;BME280;39768;54.148;12.174;2023-07-13T07:32:29;101169.91;;;18.46;nan
53514;BME280;39768;54.148;12.174;2023-07-13T07:36:53;101166.25;;;18.47;nan
53514;BME280;39768;54.148;12.174;2023-07-13T07:40:57;101177.97;;;18.92;nan
53514;BME280;39768;54.148;12.174;2023-07-13T07:45:02;101178.16;;;18.15;nan
53514;BME280;39768;54.148;12.174;2023-07-13T07:49:04;101188.22;;;18.13;nan
53514;BME280;39768;54.148;12.174;2023-07-13T07:53:06;101174.53;;;17.84;nan
53514;BME280;39768;54.148;12.174;2023-07-13T08:01:13;101179.84;;;18.32;nan
53514;BME280;39768;54.148;12.174;2023-07-13T08:05:18;101176.00;;;18.66;nan
53514;BME280;39768;54.148;12.174;2023-07-13T08:09:23;101160.44;;;18.39;nan
53514;BME280;39768;54.148;12.174;2023-07-13T08:13:24;101167.50;;;18.72;nan
53514;BME280;39768;54.148;12.174;2023-07-13T08:17:26;101164.31;;;18.94;nan
53514;BME280;39768;54.148;12.174;2023-07-13T08:21:28;101172.41;;;18.65;nan
53514;BME280;39768;54.148;12.174;2023-07-13T08:25:30;101165.63;;;18.28;nan
53514;BME280;39768;54.148;12.174;2023-07-13T08:29:31;101169.41;;;18.55;nan
53514;BME280;39768;54.148;12.174;2023-07-13T08:33:34;101172.25;;;19.11;nan
53514;BME280;39768;54.148;12.174;2023-07-13T08:37:36;101171.03;;;19.31;nan
53514;BME280;39768;54.148;12.174;2023-07-13T08:41:38;101176.91;;;19.51;nan
53514;BME280;39768;54.148;12.174;2023-07-13T08:45:43;101177.03;;;19.36;nan
53514;BME280;39768;54.148;12.174;2023-07-13T08:49:48;101169.47;;;19.12;nan
53514;BME280;39768;54.148;12.174;2023-07-13T08:53:52;101170.06;;;19.32;nan
53514;BME280;39768;54.148;12.174;2023-07-13T08:58:00;101156.25;;;19.63;nan
53514;BME280;39768;54.148;12.174;2023-07-13T09:06:12;101156.09;;;20.33;nan
53514;BME280;39768;54.148;12.174;2023-07-13T09:10:21;101152.28;;;20.22;nan
53514;BME280;39768;54.148;12.174;2023-07-13T09:14:38;101149.97;;;19.63;nan
53514;BME280;39768;54.148;12.174;2023-07-13T09:18:44;101165.38;;;19.05;nan
53514;BME280;39768;54.148;12.174;2023-07-13T09:22:48;101161.03;;;18.74;nan
53514;BME280;39768;54.148;12.174;2023-07-13T09:26:50;101163.81;;;19.58;nan
53514;BME280;39768;54.148;12.174;2023-07-13T09:35:10;101165.75;;;20.24;nan
53514;BME280;39768;54.148;12.174;2023-07-13T09:39:15;101168.22;;;19.46;nan
53514;BME280;39768;54.148;12.174;2023-07-13T09:43:22;101171.03;;;19.02;nan
53514;BME280;39768;54.148;12.174;2023-07-13T09:47:32;101180.91;;;17.83;nan
53514;BME280;39768;54.148;12.174;2023-07-13T09:51:42;101192.75;;;17.16;nan
53514;BME280;39768;54.148;12.174;2023-07-13T09:55:47;101195.59;;;17.31;nan
53514;BME280;39768;54.148;12.174;2023-07-13T09:59:54;101201.59;;;17.84;nan
53514;BME280;39768;54.148;12.174;2023-07-13T10:03:58;101207.94;;;17.52;nan
53514;BME280;39768;54.148;12.174;2023-07-13T10:07:59;101196.41;;;17.64;nan
53514;BME280;39768;54.148;12.174;2023-07-13T10:12:01;101204.66;;;17.78;nan
53514;BME280;39768;54.148;12.174;2023-07-13T10:16:06;101207.06;;;18.60;nan
53514;BME280;39768;54.148;12.174;2023-07-13T10:20:08;101207.31;;;18.26;nan
53514;BME280;39768;54.148;12.174;2023-07-13T10:24:29;101211.31;;;18.18;nan
53514;BME280;39768;54.148;12.174;2023-07-13T10:28:35;101206.69;;;17.42;nan
53514;BME280;39768;54.148;12.174;2023-07-13T10:32:39;101206.19;;;17.51;nan
53514;BME280;39768;54.148;12.174;2023-07-13T10:36:46;101200.59;;;17.38;nan
53514;BME280;39768;54.148;12.174;2023-07-13T10:40:59;101201.69;;;17.99;nan
53514;BME280;39768;54.148;12.174;2023-07-13T10:45:13;101197.53;;;18.97;nan
53514;BME280;39768;54.148;12.174;2023-07-13T10:49:16;101199.97;;;18.28;nan
53514;BME280;39768;54.148;12.174;2023-07-13T10:53:30;101194.94;;;18.06;nan
53514;BME280;39768;54.148;12.174;2023-07-13T10:57:41;101192.84;;;18.11;nan
53514;BME280;39768;54.148;12.174;2023-07-13T11:10:52;101178.53;;;20.09;nan
53514;BME280;39768;54.148;12.174;2023-07-13T11:23:09;101189.44;;;19.25;nan
53514;BME280;39768;54.148;12.174;2023-07-13T11:31:34;101186.41;;;20.00;nan
53514;BME280;39768;54.148;12.174;2023-07-13T11:35:40;101202.75;;;20.91;nan
53514;BME280;39768;54.148;12.174;2023-07-13T11:39:46;101193.13;;;21.62;nan
53514;BME280;39768;54.148;12.174;2023-07-13T11:43:50;101193.66;;;22.03;nan
53514;BME280;39768;54.148;12.174;2023-07-13T11:47:52;101178.13;;;20.68;nan
53514;BME280;39768;54.148;12.174;2023-07-13T11:51:54;101186.97;;;20.32;nan
53514;BME280;39768;54.148;12.174;2023-07-13T11:55:58;101188.44;;;19.55;nan
53514;BME280;39768;54.148;12.174;2023-07-13T12:00:02;101196.50;;;18.55;nan
53514;BME280;39768;54.148;12.174;2023-07-13T12:04:18;101189.84;;;18.75;nan
53514;BME280;39768;54.148;12.174;2023-07-13T12:08:23;101199.97;;;19.02;nan
53514;BME280;39768;54.148;12.174;2023-07-13T12:12:29;101194.56;;;19.58;nan
53514;BME280;39768;54.148;12.174;2023-07-13T12:16:33;101203.03;;;19.81;nan
53514;BME280;39768;54.148;12.174;2023-07-13T12:20:38;101209.63;;;18.91;nan
53514;BME280;39768;54.148;12.174;2023-07-13T12:24:41;101224.09;;;17.21;nan
53514;BME280;39768;54.148;12.174;2023-07-13T12:28:47;101235.44;;;15.69;nan
53514;BME280;39768;54.148;12.174;2023-07-13T12:37:01;101244.38;;;15.51;nan
53514;BME280;39768;54.148;12.174;2023-07-13T12:41:03;101250.97;;;15.45;nan
53514;BME280;39768;54.148;12.174;2023-07-13T12:45:21;101237.91;;;15.92;nan
53514;BME280;39768;54.148;12.174;2023-07-13T12:49:26;101239.63;;;16.48;nan
53514;BME280;39768;54.148;12.174;2023-07-13T12:53:30;101237.94;;;17.47;nan
53514;BME280;39768;54.148;12.174;2023-07-13T12:57:40;101246.56;;;17.38;nan
53514;BME280;39768;54.148;12.174;2023-07-13T13:01:42;101235.34;;;16.61;nan
53514;BME280;39768;54.148;12.174;2023-07-13T13:05:43;101262.81;;;16.35;nan
53514;BME280;39768;54.148;12.174;2023-07-13T13:09:46;101281.13;;;16.09;nan
53514;BME280;39768;54.148;12.174;2023-07-13T13:13:49;101287.09;;;15.41;nan
53514;BME280;39768;54.148;12.174;2023-07-13T13:17:52;101277.78;;;15.28;nan
53514;BME280;39768;54.148;12.174;2023-07-13T13:21:55;101276.28;;;15.61;nan
53514;BME280;39768;54.148;12.174;2023-07-13T13:25:58;101269.13;;;15.79;nan
53514;BME280;39768;54.148;12.174;2023-07-13T13:30:00;101260.34;;;16.30;nan
53514;BME280;39768;54.148;12.174;2023-07-13T13:34:02;101257.50;;;17.20;nan
53514;BME280;39768;54.148;12.174;2023-07-13T13:38:10;101259.22;;;18.18;nan
53514;BME280;39768;54.148;12.174;2023-07-13T13:42:12;101259.69;;;18.72;nan
53514;BME280;39768;54.148;12.174;2023-07-13T13:46:24;101264.31;;;18.70;nan
53514;BME280;39768;54.148;12.174;2023-07-13T13:50:31;101261.97;;;18.48;nan
53514;BME280;39768;54.148;12.174;2023-07-13T13:54:33;101257.38;;;18.80;nan
53514;BME280;39768;54.148;12.174;2023-07-13T13:58:35;101265.50;;;18.80;nan
53514;BME280;39768;54.148;12.174;2023-07-13T14:02:36;101260.09;;;18.94;nan
53514;BME280;39768;54.148;12.174;2023-07-13T14:06:39;101253.91;;;19.06;nan
53514;BME280;39768;54.148;12.174;2023-07-13T14:10:45;101262.88;;;18.78;nan
53514;BME280;39768;54.148;12.174;2023-07-13T14:14:48;101265.03;;;19.60;nan
53514;BME280;39768;54.148;12.174;2023-07-13T14:18:51;101264.56;;;19.39;nan
53514;BME280;39768;54.148;12.174;2023-07-13T14:22:52;101254.75;;;19.51;nan
53514;BME280;39768;54.148;12.174;2023-07-13T14:26:54;101261.16;;;19.36;nan
53514;BME280;39768;54.148;12.174;2023-07-13T14:30:56;101254.88;;;19.05;nan
53514;BME280;39768;54.148;12.174;2023-07-13T14:34:59;101257.81;;;19.02;nan
53514;BME280;39768;54.148;12.174;2023-07-13T14:39:11;101274.56;;;19.09;nan
53514;BME280;39768;54.148;12.174;2023-07-13T14:43:16;101275.69;;;19.91;nan
53514;BME280;39768;54.148;12.174;2023-07-13T14:47:19;101270.03;;;19.80;nan
53514;BME280;39768;54.148;12.174;2023-07-13T14:51:21;101268.06;;;20.11;nan
53514;BME280;39768;54.148;12.174;2023-07-13T14:55:23;101275.81;;;19.47;nan
53514;BME280;39768;54.148;12.174;2023-07-13T14:59:27;101277.75;;;19.59;nan
53514;BME280;39768;54.148;12.174;2023-07-13T15:03:29;101288.00;;;19.54;nan
53514;BME280;39768;54.148;12.174;2023-07-13T15:07:31;101277.81;;;18.85;nan
53514;BME280;39768;54.148;12.174;2023-07-13T15:11:32;101286.94;;;19.43;nan
53514;BME280;39768;54.148;12.174;2023-07-13T15:15:35;101286.97;;;19.13;nan
53514;BME280;39768;54.148;12.174;2023-07-13T15:19:37;101282.84;;;18.62;nan
53514;BME280;39768;54.148;12.174;2023-07-13T15:23:39;101290.84;;;18.33;nan
53514;BME280;39768;54.148;12.174;2023-07-13T15:27:41;101305.00;;;18.07;nan
53514;BME280;39768;54.148;12.174;2023-07-13T15:31:43;101299.41;;;17.78;nan
53514;BME280;39768;54.148;12.174;2023-07-13T15:35:45;101309.88;;;18.00;nan
53514;BME280;39768;54.148;12.174;2023-07-13T15:39:50;101313.91;;;17.93;nan
53514;BME280;39768;54.148;12.174;2023-07-13T15:43:53;101304.94;;;17.75;nan
53514;BME280;39768;54.148;12.174;2023-07-13T15:47:55;101298.31;;;17.65;nan
53514;BME280;39768;54.148;12.174;2023-07-13T15:51:57;101311.59;;;17.37;nan
53514;BME280;39768;54.148;12.174;2023-07-13T15:56:01;101321.25;;;17.25;nan
53514;BME280;39768;54.148;12.174;2023-07-13T16:00:23;101319.03;;;16.97;nan
53514;BME280;39768;54.148;12.174;2023-07-13T16:04:25;101321.16;;;17.09;nan
53514;BME280;39768;54.148;12.174;2023-07-13T16:08:30;101330.22;;;17.08;nan
53514;BME280;39768;54.148;12.174;2023-07-13T16:12:32;101322.97;;;16.92;nan
53514;BME280;39768;54.148;12.174;2023-07-13T16:16:35;101323.66;;;16.78;nan
53514;BME280;39768;54.148;12.174;2023-07-13T16:20:38;101326.09;;;17.01;nan
53514;BME280;39768;54.148;12.174;2023-07-13T16:24:43;101322.19;;;17.07;nan
53514;BME280;39768;54.148;12.174;2023-07-13T16:28:47;101333.03;;;16.88;nan
53514;BME280;39768;54.148;12.174;2023-07-13T16:32:49;101326.88;;;16.67;nan
53514;BME280;39768;54.148;12.174;2023-07-13T16:36:54;101324.47;;;16.80;nan
53514;BME280;39768;54.148;12.174;2023-07-13T16:40:56;101329.50;;;17.05;nan
53514;BME280;39768;54.148;12.174;2023-07-13T16:44:58;101323.34;;;18.33;nan
53514;BME280;39768;54.148;12.174;2023-07-13T16:49:00;101328.22;;;20.87;nan
53514;BME280;39768;54.148;12.174;2023-07-13T16:53:18;101331.59;;;21.68;nan
53514;BME280;39768;54.148;12.174;2023-07-13T16:57:24;101338.16;;;20.06;nan
53514;BME280;39768;54.148;12.174;2023-07-13T17:01:30;101343.69;;;21.64;nan
53514;BME280;39768;54.148;12.174;2023-07-13T17:05:35;101342.69;;;22.03;nan
53514;BME280;39768;54.148;12.174;2023-07-13T17:09:37;101347.69;;;22.82;nan
53514;BME280;39768;54.148;12.174;2023-07-13T17:13:45;101338.66;;;22.58;nan
53514;BME280;39768;54.148;12.174;2023-07-13T17:17:48;101326.16;;;21.68;nan
53514;BME280;39768;54.148;12.174;2023-07-13T17:21:50;101338.59;;;20.94;nan
53514;BME280;39768;54.148;12.174;2023-07-13T17:25:53;101336.50;;;19.60;nan
53514;BME280;39768;54.148;12.174;2023-07-13T17:29:55;101338.72;;;20.66;nan
53514;BME280;39768;54.148;12.174;2023-07-13T17:33:58;101347.06;;;20.90;nan
53514;BME280;39768;54.148;12.174;2023-07-13T17:38:02;101345.06;;;20.79;nan
53514;BME280;39768;54.148;12.174;2023-07-13T17:42:04;101336.38;;;20.87;nan
53514;BME280;39768;54.148;12.174;2023-07-13T17:46:12;101342.03;;;20.84;nan
53514;BME280;39768;54.148;12.174;2023-07-13T17:50:17;101346.88;;;19.97;nan
53514;BME280;39768;54.148;12.174;2023-07-13T17:54:24;101346.78;;;20.12;nan
53514;BME280;39768;54.148;12.174;2023-07-13T17:58:26;101349.22;;;20.17;nan
53514;BME280;39768;54.148;12.174;2023-07-13T18:02:28;101348.59;;;19.11;nan
53514;BME280;39768;54.148;12.174;2023-07-13T18:06:35;101355.16;;;18.77;nan
53514;BME280;39768;54.148;12.174;2023-07-13T18:10:39;101356.81;;;18.16;nan
53514;BME280;39768;54.148;12.174;2023-07-13T18:14:40;101352.00;;;17.73;nan
53514;BME280;39768;54.148;12.174;2023-07-13T18:18:42;101356.53;;;17.90;nan
53514;BME280;39768;54.148;12.174;2023-07-13T18:22:45;101348.06;;;17.45;nan
53514;BME280;39768;54.148;12.174;2023-07-13T18:26:47;101362.69;;;17.26;nan
53514;BME280;39768;54.148;12.174;2023-07-13T18:30:56;101360.44;;;17.34;nan
53514;BME280;39768;54.148;12.174;2023-07-13T18:34:58;101355.84;;;17.19;nan
53514;BME280;39768;54.148;12.174;2023-07-13T18:39:00;101359.50;;;16.81;nan
53514;BME280;39768;54.148;12.174;2023-07-13T18:43:02;101360.31;;;16.83;nan
53514;BME280;39768;54.148;12.174;2023-07-13T18:47:04;101358.91;;;16.58;nan
53514;BME280;39768;54.148;12.174;2023-07-13T18:51:10;101368.41;;;16.66;nan
53514;BME280;39768;54.148;12.174;2023-07-13T18:55:17;101365.84;;;16.63;nan
53514;BME280;39768;54.148;12.174;2023-07-13T18:59:20;101364.81;;;16.66;nan
53514;BME280;39768;54.148;12.174;2023-07-13T19:03:33;101372.75;;;16.52;nan
53514;BME280;39768;54.148;12.174;2023-07-13T19:07:35;101381.25;;;16.61;nan
53514;BME280;39768;54.148;12.174;2023-07-13T19:11:37;101389.53;;;16.39;nan
53514;BME280;39768;54.148;12.174;2023-07-13T19:15:38;101397.13;;;16.31;nan
53514;BME280;39768;54.148;12.174;2023-07-13T19:19:40;101401.06;;;16.24;nan
53514;BME280;39768;54.148;12.174;2023-07-13T19:23:44;101401.22;;;16.21;nan
53514;BME280;39768;54.148;12.174;2023-07-13T19:27:48;101404.81;;;16.01;nan
53514;BME280;39768;54.148;12.174;2023-07-13T19:31:50;101402.28;;;15.78;nan
53514;BME280;39768;54.148;12.174;2023-07-13T19:35:52;101418.97;;;15.67;nan
53514;BME280;39768;54.148;12.174;2023-07-13T19:39:54;101418.47;;;15.78;nan
53514;BME280;39768;54.148;12.174;2023-07-13T19:43:56;101425.78;;;15.76;nan
53514;BME280;39768;54.148;12.174;2023-07-13T19:47:57;101429.97;;;15.63;nan
53514;BME280;39768;54.148;12.174;2023-07-13T19:51:59;101425.19;;;15.69;nan
53514;BME280;39768;54.148;12.174;2023-07-13T19:56:01;101437.41;;;15.58;nan
53514;BME280;39768;54.148;12.174;2023-07-13T20:00:13;101435.19;;;15.47;nan
53514;BME280;39768;54.148;12.174;2023-07-13T20:04:16;101444.88;;;15.09;nan
53514;BME280;39768;54.148;12.174;2023-07-13T20:08:20;101439.22;;;15.57;nan
53514;BME280;39768;54.148;12.174;2023-07-13T20:12:23;101444.88;;;15.51;nan
53514;BME280;39768;54.148;12.174;2023-07-13T20:16:26;101459.66;;;15.42;nan
53514;BME280;39768;54.148;12.174;2023-07-13T20:20:36;101455.72;;;15.07;nan
53514;BME280;39768;54.148;12.174;2023-07-13T20:24:39;101452.88;;;14.89;nan
53514;BME280;39768;54.148;12.174;2023-07-13T20:28:41;101451.53;;;14.57;nan
53514;BME280;39768;54.148;12.174;2023-07-13T20:32:43;101454.31;;;14.54;nan
53514;BME280;39768;54.148;12.174;2023-07-13T20:36:47;101461.25;;;14.59;nan
53514;BME280;39768;54.148;12.174;2023-07-13T20:40:51;101452.72;;;14.25;nan
53514;BME280;39768;54.148;12.174;2023-07-13T20:44:53;101460.41;;;14.81;nan
53514;BME280;39768;54.148;12.174;2023-07-13T20:48:55;101467.50;;;14.83;nan
53514;BME280;39768;54.148;12.174;2023-07-13T20:52:59;101465.09;;;14.76;nan
53514;BME280;39768;54.148;12.174;2023-07-13T20:57:01;101472.91;;;14.60;nan
53514;BME280;39768;54.148;12.174;2023-07-13T21:01:03;101468.56;;;14.57;nan
53514;BME280;39768;54.148;12.174;2023-07-13T21:05:12;101481.44;;;14.49;nan
53514;BME280;39768;54.148;12.174;2023-07-13T21:09:16;101478.88;;;14.45;nan
53514;BME280;39768;54.148;12.174;2023-07-13T21:13:17;101484.50;;;14.38;nan
53514;BME280;39768;54.148;12.174;2023-07-13T21:17:22;101488.31;;;14.33;nan
53514;BME280;39768;54.148;12.174;2023-07-13T21:21:24;101496.22;;;14.37;nan
53514;BME280;39768;54.148;12.174;2023-07-13T21:25:28;101500.78;;;14.12;nan
53514;BME280;39768;54.148;12.174;2023-07-13T21:29:31;101503.16;;;14.20;nan
53514;BME280;39768;54.148;12.174;2023-07-13T21:33:33;101503.31;;;14.15;nan
53514;BME280;39768;54.148;12.174;2023-07-13T21:37:35;101504.13;;;13.94;nan
53514;BME280;39768;54.148;12.174;2023-07-13T21:41:37;101510.03;;;14.03;nan
53514;BME280;39768;54.148;12.174;2023-07-13T21:45:40;101501.28;;;13.98;nan
53514;BME280;39768;54.148;12.174;2023-07-13T21:49:42;101506.19;;;13.86;nan
53514;BME280;39768;54.148;12.174;2023-07-13T21:53:43;101501.66;;;13.88;nan
53514;BME280;39768;54.148;12.174;2023-07-13T21:57:51;101517.59;;;13.94;nan
